TGW660 WSSS-VTSM
Flight info
| Callsign | TGW660 |
|---|---|
| Flight time | 1h 28m |
| Altitude | 36000 |
| Route | VMR9B VMR B469 VPK M751 VKB M626 IKOGA Y95 RUMVA |
| Aircraft | A320/M-SDFGHIRWYZ/LB1 |
Departure
| Time | 2026-05-04 05:51 |
|---|---|
| Airport | Singapore Changi Airport (WSSS) |
Arrival
| Time | 2026-05-04 07:20 |
|---|---|
| Airport | Samui International Airport (VTSM) |
| Time | Latitude | Longitude | Altitude | Speed | Heading |
|---|---|---|---|---|---|
| 2026-05-04 05:11 | 1.36481 | 103.99065 | 33 ft | 0 kts | 271° |
| 2026-05-04 05:41 | 1.36481 | 103.99066 | 33 ft | 2 kts | 271° |
| 2026-05-04 05:41 | 1.36480 | 103.99092 | 31 ft | 4 kts | 275° |
| 2026-05-04 05:42 | 1.36476 | 103.99118 | 33 ft | 4 kts | 288° |
| 2026-05-04 05:42 | 1.36464 | 103.99139 | 29 ft | 3 kts | 345° |
| 2026-05-04 05:42 | 1.36460 | 103.99140 | 29 ft | 0 kts | 353° |
| 2026-05-04 05:47 | 1.36644 | 103.99230 | 33 ft | 10 kts | 114° |
| 2026-05-04 05:47 | 1.36613 | 103.99303 | 33 ft | 12 kts | 112° |
| 2026-05-04 05:47 | 1.36581 | 103.99376 | 33 ft | 12 kts | 114° |
| 2026-05-04 05:48 | 1.36545 | 103.99460 | 32 ft | 14 kts | 112° |
| 2026-05-04 05:48 | 1.36509 | 103.99547 | 30 ft | 15 kts | 112° |
| 2026-05-04 05:48 | 1.36469 | 103.99641 | 32 ft | 12 kts | 113° |
| 2026-05-04 05:48 | 1.36441 | 103.99708 | 32 ft | 11 kts | 113° |
| 2026-05-04 05:49 | 1.36407 | 103.99787 | 32 ft | 14 kts | 113° |
| 2026-05-04 05:49 | 1.36374 | 103.99854 | 32 ft | 10 kts | 134° |
| 2026-05-04 05:49 | 1.36305 | 103.99870 | 31 ft | 11 kts | 173° |
| 2026-05-04 05:49 | 1.36232 | 103.99878 | 30 ft | 8 kts | 173° |
| 2026-05-04 05:51 | 1.34277 | 103.99090 | 129 ft | 180 kts | 202° |
| 2026-05-04 05:51 | 1.33169 | 103.98604 | 1123 ft | 172 kts | 204° |
| 2026-05-04 05:52 | 1.32064 | 103.98132 | 2007 ft | 175 kts | 203° |
| 2026-05-04 05:52 | 1.30908 | 103.97646 | 2399 ft | 189 kts | 203° |
| 2026-05-04 05:52 | 1.29622 | 103.97105 | 2623 ft | 212 kts | 203° |
| 2026-05-04 05:52 | 1.28187 | 103.96500 | 2847 ft | 235 kts | 204° |
| 2026-05-04 05:53 | 1.26603 | 103.95833 | 3173 ft | 259 kts | 203° |
| 2026-05-04 05:54 | 1.16315 | 104.01688 | 8298 ft | 292 kts | 96° |
| 2026-05-04 05:55 | 1.16508 | 104.03713 | 9010 ft | 295 kts | 70° |
| 2026-05-04 05:55 | 1.17521 | 104.05485 | 9754 ft | 297 kts | 52° |
| 2026-05-04 05:55 | 1.18806 | 104.07131 | 10315 ft | 306 kts | 50° |
| 2026-05-04 05:55 | 1.20339 | 104.08674 | 10458 ft | 327 kts | 39° |
| 2026-05-04 05:56 | 1.22297 | 104.09982 | 10641 ft | 346 kts | 28° |
| 2026-05-04 05:56 | 1.24480 | 104.11043 | 11107 ft | 352 kts | 19° |
| 2026-05-04 05:56 | 1.26896 | 104.11539 | 11673 ft | 356 kts | 3° |
| 2026-05-04 05:56 | 1.28532 | 104.11486 | 12048 ft | 359 kts | 352° |
| 2026-05-04 05:57 | 1.30937 | 104.10798 | 12613 ft | 363 kts | 335° |
| 2026-05-04 05:57 | 1.33065 | 104.09420 | 13173 ft | 368 kts | 320° |
| 2026-05-04 05:57 | 1.35030 | 104.07752 | 13735 ft | 371 kts | 320° |
| 2026-05-04 05:57 | 1.37008 | 104.06069 | 14209 ft | 375 kts | 320° |
| 2026-05-04 05:58 | 1.39666 | 104.03819 | 14920 ft | 380 kts | 322° |
| 2026-05-04 05:58 | 1.41099 | 104.02795 | 15324 ft | 382 kts | 329° |
| 2026-05-04 05:58 | 1.43482 | 104.01609 | 15854 ft | 384 kts | 341° |
| 2026-05-04 05:58 | 1.46034 | 104.00765 | 16333 ft | 386 kts | 343° |
| 2026-05-04 05:59 | 1.48601 | 103.99937 | 16813 ft | 389 kts | 343° |
| 2026-05-04 05:59 | 1.51190 | 103.99101 | 17281 ft | 392 kts | 343° |
| 2026-05-04 05:59 | 1.53792 | 103.98259 | 17768 ft | 396 kts | 343° |
| 2026-05-04 05:59 | 1.56439 | 103.97403 | 18237 ft | 399 kts | 343° |
| 2026-05-04 06:00 | 1.59100 | 103.96546 | 18664 ft | 402 kts | 343° |
| 2026-05-04 06:00 | 1.61732 | 103.95697 | 19080 ft | 404 kts | 343° |
| 2026-05-04 06:00 | 1.64426 | 103.94825 | 19516 ft | 407 kts | 343° |
| 2026-05-04 06:00 | 1.67131 | 103.93948 | 19952 ft | 410 kts | 343° |
| 2026-05-04 06:01 | 1.69868 | 103.93060 | 20400 ft | 412 kts | 343° |
| 2026-05-04 06:01 | 1.72578 | 103.92179 | 20828 ft | 415 kts | 343° |
| 2026-05-04 06:03 | 1.93000 | 103.90091 | 23566 ft | 431 kts | 358° |
| 2026-05-04 06:03 | 1.95961 | 103.89903 | 23863 ft | 433 kts | 358° |
| 2026-05-04 06:05 | 2.17370 | 103.88538 | 25872 ft | 447 kts | 358° |
| 2026-05-04 06:05 | 2.23275 | 103.88162 | 26395 ft | 451 kts | 358° |
| 2026-05-04 06:05 | 2.26383 | 103.87963 | 26666 ft | 453 kts | 358° |
| 2026-05-04 06:06 | 2.29538 | 103.87761 | 26934 ft | 455 kts | 357° |
| 2026-05-04 06:06 | 2.32714 | 103.87555 | 27186 ft | 457 kts | 357° |
| 2026-05-04 06:06 | 2.35895 | 103.87337 | 27434 ft | 459 kts | 355° |
| 2026-05-04 06:06 | 2.39048 | 103.86768 | 27680 ft | 462 kts | 345° |
| 2026-05-04 06:07 | 2.42087 | 103.85689 | 27934 ft | 465 kts | 336° |
| 2026-05-04 06:07 | 2.45044 | 103.84328 | 28189 ft | 467 kts | 336° |
| 2026-05-04 06:07 | 2.48006 | 103.82965 | 28444 ft | 469 kts | 336° |
| 2026-05-04 06:07 | 2.50950 | 103.81616 | 28694 ft | 471 kts | 336° |
| 2026-05-04 06:08 | 2.53940 | 103.80253 | 28943 ft | 473 kts | 336° |
| 2026-05-04 06:08 | 2.56955 | 103.78880 | 29252 ft | 473 kts | 336° |
| 2026-05-04 06:08 | 2.59948 | 103.77517 | 29627 ft | 472 kts | 336° |
| 2026-05-04 06:08 | 2.62943 | 103.76146 | 29989 ft | 472 kts | 336° |
| 2026-05-04 06:09 | 2.65893 | 103.74794 | 30299 ft | 471 kts | 336° |
| 2026-05-04 06:09 | 2.68868 | 103.73431 | 30639 ft | 470 kts | 336° |
| 2026-05-04 06:11 | 2.89474 | 103.64166 | 33245 ft | 458 kts | 336° |
| 2026-05-04 06:11 | 2.92388 | 103.62873 | 33646 ft | 456 kts | 336° |
| 2026-05-04 06:13 | 3.12464 | 103.53934 | 35722 ft | 448 kts | 336° |
| 2026-05-04 06:14 | 3.29790 | 103.46157 | 35895 ft | 458 kts | 336° |
| 2026-05-04 06:14 | 3.32708 | 103.44843 | 35891 ft | 458 kts | 336° |
| 2026-05-04 06:15 | 3.38538 | 103.42220 | 35886 ft | 458 kts | 336° |
| 2026-05-04 06:15 | 3.44430 | 103.39745 | 35889 ft | 458 kts | 339° |
| 2026-05-04 06:16 | 3.50380 | 103.37445 | 35893 ft | 458 kts | 340° |
| 2026-05-04 06:16 | 3.56292 | 103.35160 | 35886 ft | 458 kts | 339° |
| 2026-05-04 06:17 | 3.62234 | 103.32806 | 35882 ft | 458 kts | 339° |
| 2026-05-04 06:17 | 3.68146 | 103.30449 | 35877 ft | 458 kts | 339° |
| 2026-05-04 06:18 | 3.74083 | 103.28082 | 35868 ft | 458 kts | 339° |
| 2026-05-04 06:20 | 3.97772 | 103.18660 | 35872 ft | 458 kts | 339° |
| 2026-05-04 06:21 | 4.12576 | 103.12782 | 35896 ft | 458 kts | 339° |
| 2026-05-04 06:22 | 4.18475 | 103.10436 | 35893 ft | 458 kts | 339° |
| 2026-05-04 06:25 | 4.59901 | 102.93935 | 35914 ft | 457 kts | 339° |
| 2026-05-04 06:26 | 4.65815 | 102.91573 | 35908 ft | 457 kts | 339° |
| 2026-05-04 06:26 | 4.71738 | 102.89212 | 35910 ft | 457 kts | 339° |
| 2026-05-04 06:27 | 4.86508 | 102.83332 | 35914 ft | 457 kts | 339° |
| 2026-05-04 06:28 | 4.92380 | 102.80995 | 35913 ft | 457 kts | 339° |
| 2026-05-04 06:28 | 4.98306 | 102.78642 | 35909 ft | 456 kts | 339° |
| 2026-05-04 06:29 | 5.04193 | 102.76309 | 35911 ft | 457 kts | 339° |
| 2026-05-04 06:29 | 5.10107 | 102.73950 | 35912 ft | 456 kts | 339° |
| 2026-05-04 06:30 | 5.16019 | 102.71591 | 35913 ft | 456 kts | 339° |
| 2026-05-04 06:30 | 5.21931 | 102.69242 | 35912 ft | 456 kts | 339° |
| 2026-05-04 06:31 | 5.27793 | 102.66881 | 35916 ft | 456 kts | 338° |
| 2026-05-04 06:31 | 5.33682 | 102.64488 | 35918 ft | 456 kts | 338° |
| 2026-05-04 06:33 | 5.57223 | 102.55090 | 35921 ft | 455 kts | 339° |
| 2026-05-04 06:34 | 5.63120 | 102.52727 | 35921 ft | 455 kts | 339° |
| 2026-05-04 06:34 | 5.68562 | 102.50542 | 35920 ft | 455 kts | 339° |
| 2026-05-04 06:36 | 5.92104 | 102.41121 | 35923 ft | 456 kts | 339° |
| 2026-05-04 06:37 | 5.98013 | 102.38762 | 35928 ft | 456 kts | 339° |
| 2026-05-04 06:37 | 6.03892 | 102.36415 | 35928 ft | 456 kts | 339° |
| 2026-05-04 06:38 | 6.09797 | 102.34051 | 35932 ft | 457 kts | 339° |
| 2026-05-04 06:40 | 6.31479 | 102.23645 | 35932 ft | 458 kts | 334° |
| 2026-05-04 06:40 | 6.37164 | 102.20720 | 35931 ft | 458 kts | 334° |
| 2026-05-04 06:41 | 6.42843 | 102.17797 | 35930 ft | 458 kts | 334° |
| 2026-05-04 06:41 | 6.48505 | 102.14890 | 35927 ft | 459 kts | 334° |
| 2026-05-04 06:42 | 6.54208 | 102.11965 | 35925 ft | 459 kts | 334° |
| 2026-05-04 06:44 | 6.76941 | 102.00253 | 35925 ft | 460 kts | 334° |
| 2026-05-04 06:44 | 6.82613 | 101.97326 | 35921 ft | 460 kts | 334° |
| 2026-05-04 06:45 | 6.88329 | 101.94386 | 35919 ft | 460 kts | 334° |
| 2026-05-04 06:45 | 6.94016 | 101.91460 | 35921 ft | 460 kts | 334° |
| 2026-05-04 06:46 | 6.99716 | 101.88522 | 35917 ft | 460 kts | 334° |
| 2026-05-04 06:46 | 7.05435 | 101.85578 | 35920 ft | 460 kts | 334° |
| 2026-05-04 06:48 | 7.28239 | 101.73809 | 35920 ft | 461 kts | 334° |
| 2026-05-04 06:50 | 7.51041 | 101.62020 | 35919 ft | 461 kts | 334° |
| 2026-05-04 06:51 | 7.56755 | 101.59068 | 35921 ft | 461 kts | 334° |
| 2026-05-04 06:51 | 7.62450 | 101.56128 | 35921 ft | 461 kts | 334° |
| 2026-05-04 06:52 | 7.67953 | 101.52786 | 35921 ft | 463 kts | 323° |
| 2026-05-04 06:52 | 7.73048 | 101.48793 | 35923 ft | 463 kts | 323° |
| 2026-05-04 06:53 | 7.78151 | 101.44801 | 35925 ft | 463 kts | 323° |
| 2026-05-04 06:53 | 7.83239 | 101.40840 | 35921 ft | 464 kts | 323° |
| 2026-05-04 06:54 | 7.88358 | 101.36855 | 35922 ft | 464 kts | 323° |
| 2026-05-04 06:54 | 7.93456 | 101.32876 | 35922 ft | 464 kts | 323° |
| 2026-05-04 06:55 | 7.98245 | 101.29134 | 35920 ft | 465 kts | 323° |
| 2026-05-04 06:55 | 8.03334 | 101.25162 | 35923 ft | 465 kts | 323° |
| 2026-05-04 06:57 | 8.23798 | 101.09155 | 35919 ft | 466 kts | 323° |
| 2026-05-04 06:58 | 8.28932 | 101.05135 | 35918 ft | 466 kts | 323° |
| 2026-05-04 06:58 | 8.34071 | 101.01114 | 35919 ft | 467 kts | 323° |
| 2026-05-04 06:59 | 8.39181 | 100.97116 | 35913 ft | 467 kts | 323° |
| 2026-05-04 06:59 | 8.41765 | 100.95093 | 35780 ft | 467 kts | 322° |
| 2026-05-04 06:59 | 8.44348 | 100.93069 | 35026 ft | 471 kts | 322° |
| 2026-05-04 07:01 | 8.62714 | 100.78682 | 29889 ft | 471 kts | 322° |
| 2026-05-04 07:01 | 8.65300 | 100.76651 | 29231 ft | 467 kts | 322° |
| 2026-05-04 07:02 | 8.67854 | 100.74648 | 28660 ft | 462 kts | 323° |
| 2026-05-04 07:02 | 8.70384 | 100.72667 | 28080 ft | 458 kts | 323° |
| 2026-05-04 07:02 | 8.72890 | 100.70704 | 27495 ft | 454 kts | 323° |
| 2026-05-04 07:02 | 8.75383 | 100.68753 | 26918 ft | 450 kts | 323° |
| 2026-05-04 07:03 | 8.77814 | 100.66846 | 26356 ft | 447 kts | 323° |
| 2026-05-04 07:03 | 8.80260 | 100.64925 | 25805 ft | 443 kts | 323° |
| 2026-05-04 07:03 | 8.82694 | 100.63012 | 25256 ft | 440 kts | 323° |
| 2026-05-04 07:03 | 8.85105 | 100.61120 | 24728 ft | 437 kts | 323° |
| 2026-05-04 07:04 | 8.87501 | 100.59240 | 24208 ft | 434 kts | 323° |
| 2026-05-04 07:04 | 8.89889 | 100.57367 | 23706 ft | 432 kts | 323° |
| 2026-05-04 07:04 | 8.92230 | 100.55526 | 23170 ft | 430 kts | 323° |
| 2026-05-04 07:04 | 8.94576 | 100.53675 | 22670 ft | 425 kts | 323° |
| 2026-05-04 07:05 | 8.96905 | 100.51836 | 22182 ft | 422 kts | 323° |
| 2026-05-04 07:05 | 8.99209 | 100.50016 | 21694 ft | 419 kts | 323° |
| 2026-05-04 07:05 | 9.01507 | 100.48203 | 21202 ft | 417 kts | 323° |
| 2026-05-04 07:05 | 9.03790 | 100.46401 | 20699 ft | 415 kts | 323° |
| 2026-05-04 07:06 | 9.08316 | 100.42838 | 19681 ft | 413 kts | 323° |
| 2026-05-04 07:06 | 9.10590 | 100.41047 | 19142 ft | 413 kts | 323° |
| 2026-05-04 07:06 | 9.12847 | 100.39266 | 18615 ft | 412 kts | 323° |
| 2026-05-04 07:07 | 9.15106 | 100.37480 | 18129 ft | 409 kts | 323° |
| 2026-05-04 07:08 | 9.30541 | 100.27278 | 14339 ft | 337 kts | 353° |
| 2026-05-04 07:09 | 9.32821 | 100.27153 | 13882 ft | 326 kts | 5° |
| 2026-05-04 07:09 | 9.35077 | 100.27388 | 13407 ft | 328 kts | 8° |
| 2026-05-04 07:09 | 9.37342 | 100.27654 | 12919 ft | 328 kts | 8° |
| 2026-05-04 07:09 | 9.39617 | 100.27920 | 12468 ft | 328 kts | 8° |
| 2026-05-04 07:10 | 9.41869 | 100.28182 | 12018 ft | 328 kts | 8° |
| 2026-05-04 07:10 | 9.44147 | 100.28449 | 11548 ft | 329 kts | 8° |
| 2026-05-04 07:12 | 9.59447 | 100.29912 | 9678 ft | 300 kts | 2° |
| 2026-05-04 07:12 | 9.61515 | 100.29915 | 9274 ft | 301 kts | 2° |
| 2026-05-04 07:12 | 9.63600 | 100.29915 | 8882 ft | 300 kts | 2° |
| 2026-05-04 07:12 | 9.65676 | 100.29915 | 8619 ft | 296 kts | 2° |
| 2026-05-04 07:13 | 9.67722 | 100.29915 | 8051 ft | 292 kts | 2° |
| 2026-05-04 07:13 | 9.69742 | 100.29896 | 7604 ft | 288 kts | 358° |
| 2026-05-04 07:13 | 9.71658 | 100.29289 | 7185 ft | 295 kts | 328° |
| 2026-05-04 07:14 | 9.73433 | 100.21589 | 5268 ft | 292 kts | 270° |
| 2026-05-04 07:14 | 9.73444 | 100.19536 | 4681 ft | 290 kts | 270° |
| 2026-05-04 07:15 | 9.73460 | 100.17501 | 4137 ft | 285 kts | 270° |
| 2026-05-04 07:15 | 9.73475 | 100.15541 | 3911 ft | 269 kts | 270° |
| 2026-05-04 07:15 | 9.73485 | 100.13707 | 3783 ft | 251 kts | 269° |
| 2026-05-04 07:15 | 9.73329 | 100.12042 | 3672 ft | 236 kts | 251° |
| 2026-05-04 07:16 | 9.72578 | 100.10606 | 3527 ft | 230 kts | 226° |
| 2026-05-04 07:16 | 9.71332 | 100.09614 | 3214 ft | 227 kts | 202° |
| 2026-05-04 07:16 | 9.69897 | 100.08967 | 2918 ft | 225 kts | 201° |
| 2026-05-04 07:16 | 9.68475 | 100.08322 | 2628 ft | 223 kts | 202° |
| 2026-05-04 07:17 | 9.67088 | 100.07686 | 2347 ft | 212 kts | 202° |
| 2026-05-04 07:17 | 9.65790 | 100.07089 | 2103 ft | 197 kts | 202° |
| 2026-05-04 07:17 | 9.64578 | 100.06531 | 1841 ft | 185 kts | 201° |
| 2026-05-04 07:17 | 9.63470 | 100.06017 | 1622 ft | 166 kts | 201° |
| 2026-05-04 07:18 | 9.62459 | 100.05617 | 1425 ft | 150 kts | 189° |
| 2026-05-04 07:18 | 9.61453 | 100.05593 | 1249 ft | 142 kts | 171° |
| 2026-05-04 07:18 | 9.60476 | 100.05693 | 1062 ft | 140 kts | 172° |
| 2026-05-04 07:18 | 9.59501 | 100.05804 | 882 ft | 141 kts | 172° |
| 2026-05-04 07:19 | 9.58530 | 100.05899 | 705 ft | 141 kts | 172° |
| 2026-05-04 07:19 | 9.57565 | 100.05990 | 424 ft | 139 kts | 173° |
| 2026-05-04 07:19 | 9.56613 | 100.06071 | 250 ft | 139 kts | 171° |
| 2026-05-04 07:19 | 9.55657 | 100.06158 | 98 ft | 137 kts | 172° |
| 2026-05-04 07:20 | 9.54771 | 100.06248 | 50 ft | 108 kts | 174° |
| 2026-05-04 07:20 | 9.54325 | 100.06295 | 53 ft | 36 kts | 176° |
| 2026-05-04 07:20 | 9.54125 | 100.06310 | 53 ft | 27 kts | 174° |
| 2026-05-04 07:20 | 9.53958 | 100.06327 | 52 ft | 16 kts | 180° |
| 2026-05-04 07:22 | 9.54336 | 100.06289 | 53 ft | 23 kts | 354° |
| 2026-05-04 07:22 | 9.54494 | 100.06275 | 53 ft | 25 kts | 354° |
| 2026-05-04 07:23 | 9.54608 | 100.06264 | 53 ft | 17 kts | 354° |
| 2026-05-04 07:23 | 9.54740 | 100.06250 | 50 ft | 21 kts | 355° |
| 2026-05-04 07:23 | 9.54873 | 100.06239 | 53 ft | 17 kts | 355° |
| 2026-05-04 07:23 | 9.54958 | 100.06229 | 53 ft | 9 kts | 353° |
| 2026-05-04 07:24 | 9.55005 | 100.06249 | 51 ft | 8 kts | 79° |
| 2026-05-04 07:24 | 9.55011 | 100.06272 | 53 ft | 2 kts | 77° |
| 2026-05-04 07:24 | 9.55015 | 100.06306 | 53 ft | 7 kts | 86° |
| 2026-05-04 07:24 | 9.55017 | 100.06336 | 53 ft | 2 kts | 84° |
| 2026-05-04 07:25 | 9.55019 | 100.06346 | 53 ft | 0 kts | 84° |